createdAt,value
2018-12-30T00:01:18.243Z,8.15
2018-12-30T00:03:48.785Z,4.22
2018-12-30T00:06:19.759Z,9.98
2018-12-30T00:08:50.494Z,17.45
2018-12-30T00:11:21.049Z,5.70
2018-12-30T00:13:51.584Z,6.65
2018-12-30T00:16:22.216Z,6.60
2018-12-30T00:18:52.771Z,10.67
2018-12-30T00:21:23.326Z,7.90
2018-12-30T00:23:53.950Z,9.93
2018-12-30T00:26:24.540Z,11.50
2018-12-30T00:28:55.136Z,9.20
2018-12-30T00:31:25.820Z,12.75
2018-12-30T00:33:56.429Z,10.03
2018-12-30T00:36:26.993Z,8.23
2018-12-30T00:38:57.619Z,6.65
2018-12-30T00:41:28.179Z,2.77
2018-12-30T00:43:58.785Z,8.40
2018-12-30T00:46:29.352Z,7.77
2018-12-30T00:49:00.023Z,8.63
2018-12-30T00:51:30.633Z,12.37
2018-12-30T00:54:01.482Z,6.70
2018-12-30T00:56:32.287Z,6.75
2018-12-30T00:59:02.922Z,11.40
2018-12-30T01:01:33.510Z,5.53
2018-12-30T01:04:04.149Z,2.85
2018-12-30T01:06:35.134Z,5.25
2018-12-30T01:09:07.781Z,8.38
2018-12-30T01:11:38.306Z,8.00
2018-12-30T01:14:08.903Z,5.10
2018-12-30T01:16:39.605Z,6.22
2018-12-30T01:19:10.266Z,13.80
2018-12-30T01:21:40.953Z,6.97
2018-12-30T01:24:11.578Z,4.90
2018-12-30T01:26:42.160Z,5.72
2018-12-30T01:29:12.958Z,10.15
2018-12-30T01:31:43.951Z,3.40
2018-12-30T01:34:14.555Z,5.97
2018-12-30T01:36:45.107Z,2.62
2018-12-30T01:39:15.786Z,1.10
2018-12-30T01:41:46.828Z,1.90
2018-12-30T01:44:17.398Z,2.22
2018-12-30T01:46:48.077Z,2.90
2018-12-30T01:49:18.683Z,3.35
2018-12-30T01:51:49.282Z,1.10
2018-12-30T01:54:19.974Z,2.20
2018-12-30T01:56:50.524Z,5.60
2018-12-30T01:59:21.203Z,0.55
2018-12-30T02:01:51.969Z,9.80
2018-12-30T02:04:22.593Z,2.12
2018-12-30T02:06:53.171Z,0.50
2018-12-30T02:09:23.933Z,0.80
2018-12-30T02:11:54.511Z,1.27
2018-12-30T02:14:25.090Z,1.12
2018-12-30T02:16:56.178Z,2.00
2018-12-30T02:19:26.818Z,4.58
2018-12-30T02:21:57.412Z,4.53
2018-12-30T02:24:28.039Z,6.30
2018-12-30T02:26:58.544Z,2.70
2018-12-30T02:29:29.092Z,2.85
2018-12-30T02:31:59.709Z,8.10
2018-12-30T02:34:30.265Z,1.40
2018-12-30T02:37:00.802Z,9.45
2018-12-30T02:39:32.086Z,3.90
2018-12-30T02:42:02.688Z,2.40
2018-12-30T02:44:33.276Z,0.65
2018-12-30T02:47:04.008Z,2.92
2018-12-30T02:49:34.865Z,4.05
2018-12-30T02:52:05.455Z,5.78
2018-12-30T02:54:36.113Z,1.27
2018-12-30T02:57:06.617Z,2.50
2018-12-30T02:59:37.199Z,6.28
2018-12-30T03:02:07.822Z,3.77
2018-12-30T03:04:38.424Z,5.80
2018-12-30T03:07:08.965Z,3.60
2018-12-30T03:09:39.602Z,1.50
2018-12-30T03:12:10.165Z,29.42
2018-12-30T03:14:40.694Z,10.28
2018-12-30T03:17:11.363Z,4.20
2018-12-30T03:19:41.881Z,6.20
2018-12-30T03:22:12.784Z,10.15
2018-12-30T03:24:43.444Z,9.55
2018-12-30T03:27:14.006Z,2.70
2018-12-30T03:29:44.568Z,5.00
2018-12-30T03:32:15.222Z,1.62
2018-12-30T03:34:45.784Z,4.22
2018-12-30T03:37:16.343Z,8.28
2018-12-30T03:39:46.978Z,10.23
2018-12-30T03:42:17.575Z,3.67
2018-12-30T03:44:48.169Z,5.70
2018-12-30T03:47:18.812Z,6.40
2018-12-30T03:49:49.366Z,12.23
2018-12-30T03:52:20.014Z,16.48
2018-12-30T03:54:50.603Z,11.60
2018-12-30T03:57:21.196Z,13.43
2018-12-30T03:59:51.871Z,11.40
2018-12-30T04:02:22.418Z,12.80
2018-12-30T04:04:53.032Z,16.02
2018-12-30T04:07:23.669Z,20.05
2018-12-30T04:09:54.225Z,11.03
2018-12-30T04:12:24.899Z,16.93
2018-12-30T04:14:55.561Z,13.87
2018-12-30T04:17:26.125Z,14.73
2018-12-30T04:19:56.727Z,26.73
2018-12-30T04:22:27.322Z,16.57
2018-12-30T04:24:57.916Z,12.25
2018-12-30T04:27:28.443Z,22.32
2018-12-30T04:29:59.171Z,13.28
2018-12-30T04:32:29.649Z,22.00
2018-12-30T04:35:00.185Z,8.50
2018-12-30T04:37:30.802Z,14.83
2018-12-30T04:40:01.303Z,17.32
2018-12-30T04:42:31.815Z,19.60
2018-12-30T04:45:02.418Z,11.93
2018-12-30T04:47:33.008Z,15.83
2018-12-30T04:50:03.540Z,12.13
2018-12-30T04:52:34.135Z,15.00
2018-12-30T04:55:04.658Z,8.50
2018-12-30T04:57:35.189Z,20.23
2018-12-30T05:00:06.023Z,22.13
2018-12-30T05:02:36.513Z,7.90
2018-12-30T05:05:07.133Z,14.80
2018-12-30T05:07:37.775Z,16.82
2018-12-30T05:10:08.311Z,11.20
2018-12-30T05:12:38.852Z,6.87
2018-12-30T05:15:09.502Z,12.00
2018-12-30T05:17:40.097Z,12.65
2018-12-30T05:20:10.581Z,8.90
2018-12-30T05:22:41.164Z,11.40
2018-12-30T05:25:11.715Z,8.40
2018-12-30T05:27:42.287Z,4.83
2018-12-30T05:30:12.851Z,10.48
2018-12-30T05:32:43.383Z,5.30
2018-12-30T05:35:13.932Z,10.18
2018-12-30T05:37:44.541Z,12.80
2018-12-30T05:40:15.125Z,9.45
2018-12-30T05:42:45.668Z,9.15
2018-12-30T05:45:16.231Z,12.68
2018-12-30T05:47:46.772Z,14.50
2018-12-30T05:50:17.328Z,7.22
2018-12-30T05:52:47.943Z,12.70
2018-12-30T05:55:18.500Z,8.83
2018-12-30T05:57:49.041Z,5.05
2018-12-30T06:00:19.651Z,5.75
2018-12-30T06:02:50.143Z,8.43
2018-12-30T06:05:20.674Z,9.00
2018-12-30T06:07:51.260Z,17.65
2018-12-30T06:10:21.813Z,15.28
2018-12-30T06:12:52.352Z,4.37
2018-12-30T06:15:24.600Z,17.10
2018-12-30T06:17:55.274Z,9.00
2018-12-30T06:20:25.804Z,6.40
2018-12-30T06:22:56.336Z,15.53
2018-12-30T06:25:26.913Z,7.45
2018-12-30T06:27:57.426Z,14.07
2018-12-30T06:30:28.068Z,4.42
2018-12-30T06:32:59.209Z,4.92
2018-12-30T06:35:30.340Z,7.65
2018-12-30T06:38:00.901Z,3.17
2018-12-30T06:40:31.391Z,13.72
2018-12-30T06:43:01.861Z,6.80
2018-12-30T06:45:32.388Z,8.38
2018-12-30T06:48:02.846Z,9.50
2018-12-30T06:50:33.336Z,5.47
2018-12-30T06:53:03.837Z,6.90
2018-12-30T06:55:34.312Z,7.97
2018-12-30T06:58:04.799Z,14.57
2018-12-30T07:00:35.617Z,5.15
2018-12-30T07:03:06.104Z,7.00
2018-12-30T07:05:36.591Z,2.00
2018-12-30T07:08:07.140Z,3.85
2018-12-30T07:10:37.637Z,4.35
2018-12-30T07:13:08.130Z,7.60
2018-12-30T07:15:38.691Z,7.03
2018-12-30T07:18:09.073Z,16.20
2018-12-30T07:20:39.547Z,14.93
2018-12-30T07:23:10.157Z,6.08
2018-12-30T07:25:40.637Z,7.72
2018-12-30T07:28:11.146Z,13.88
2018-12-30T07:30:41.681Z,5.75
2018-12-30T07:33:12.166Z,11.20
2018-12-30T07:35:42.647Z,12.15
2018-12-30T07:38:13.194Z,4.42
2018-12-30T07:40:43.724Z,5.08
2018-12-30T07:43:14.231Z,12.47
2018-12-30T07:45:44.766Z,6.20
2018-12-30T07:48:15.256Z,10.48
2018-12-30T07:50:45.739Z,9.40
2018-12-30T07:53:16.332Z,8.35
2018-12-30T07:55:46.845Z,10.57
2018-12-30T07:58:17.323Z,10.10
2018-12-30T08:00:47.864Z,9.70
2018-12-30T08:03:18.338Z,6.42
2018-12-30T08:05:48.833Z,8.75
2018-12-30T08:08:19.363Z,22.55
2018-12-30T08:10:49.871Z,8.08
2018-12-30T08:13:20.313Z,9.63
2018-12-30T08:15:50.912Z,5.50
2018-12-30T08:18:21.389Z,4.12
2018-12-30T08:20:51.810Z,11.93
2018-12-30T08:23:23.764Z,14.68
2018-12-30T08:25:54.238Z,7.70
2018-12-30T08:28:25.102Z,16.40
2018-12-30T08:30:55.915Z,6.90
2018-12-30T08:33:26.399Z,8.90
2018-12-30T08:35:56.866Z,10.68
2018-12-30T08:38:27.508Z,7.95
2018-12-30T08:40:57.969Z,4.50
2018-12-30T08:43:28.403Z,8.25
2018-12-30T08:45:58.943Z,6.07
2018-12-30T08:48:29.415Z,7.62
2018-12-30T08:50:59.937Z,10.78
2018-12-30T08:53:30.494Z,10.43
2018-12-30T08:56:00.987Z,14.45
2018-12-30T08:58:31.471Z,10.55
2018-12-30T09:01:02.041Z,10.40
2018-12-30T09:03:32.521Z,12.47
2018-12-30T09:06:03.032Z,11.48
2018-12-30T09:08:33.639Z,9.53
2018-12-30T09:11:04.073Z,14.47
2018-12-30T09:13:34.545Z,16.67
2018-12-30T09:16:05.118Z,8.68
2018-12-30T09:18:35.588Z,14.30
2018-12-30T09:21:06.046Z,24.20
2018-12-30T09:23:37.465Z,11.48
2018-12-30T09:26:08.283Z,10.25
2018-12-30T09:28:38.789Z,18.90
2018-12-30T09:31:09.346Z,17.45
2018-12-30T09:33:39.962Z,14.38
2018-12-30T09:36:10.460Z,5.25
2018-12-30T09:38:41.014Z,6.15
2018-12-30T09:41:11.467Z,8.78
2018-12-30T09:43:41.938Z,7.97
2018-12-30T09:46:12.546Z,15.17
2018-12-30T09:48:43.027Z,15.08
2018-12-30T09:51:13.499Z,10.75
2018-12-30T09:53:45.218Z,15.48
2018-12-30T09:56:15.897Z,10.98
2018-12-30T09:58:46.410Z,6.37
2018-12-30T10:01:16.917Z,16.03
2018-12-30T10:03:47.440Z,12.13
2018-12-30T10:06:17.926Z,9.65
2018-12-30T10:08:48.482Z,15.23
2018-12-30T10:11:18.945Z,7.47
2018-12-30T10:13:49.362Z,8.90
2018-12-30T10:16:19.932Z,11.68
2018-12-30T10:18:51.692Z,18.93
2018-12-30T10:21:22.258Z,10.05
2018-12-30T10:23:53.269Z,18.98
2018-12-30T10:26:23.736Z,26.33
2018-12-30T10:28:54.203Z,14.10
2018-12-30T10:31:24.822Z,17.90
2018-12-30T10:33:55.284Z,9.25
2018-12-30T10:36:25.785Z,14.13
2018-12-30T10:38:56.256Z,5.65
2018-12-30T10:41:26.756Z,14.18
2018-12-30T10:43:57.072Z,10.97
2018-12-30T10:46:27.629Z,21.05
2018-12-30T10:48:58.096Z,8.15
2018-12-30T10:51:28.558Z,5.17
2018-12-30T10:54:00.759Z,17.85
2018-12-30T10:56:31.352Z,11.48
2018-12-30T10:59:01.812Z,14.33
2018-12-30T11:01:32.385Z,7.20
2018-12-30T11:04:02.858Z,14.53
2018-12-30T11:06:33.282Z,16.05
2018-12-30T11:09:05.817Z,11.48
2018-12-30T11:11:36.313Z,8.95
2018-12-30T11:14:06.844Z,15.60
2018-12-30T11:16:37.386Z,11.10
2018-12-30T11:19:07.898Z,16.30
2018-12-30T11:21:38.400Z,8.30
2018-12-30T11:24:09.024Z,7.65
2018-12-30T11:26:39.554Z,12.43
2018-12-30T11:29:10.048Z,11.68
2018-12-30T11:31:40.580Z,9.50
2018-12-30T11:34:11.153Z,12.82
2018-12-30T11:36:41.696Z,17.95
2018-12-30T11:39:12.336Z,13.22
2018-12-30T11:41:42.830Z,12.82
2018-12-30T11:44:13.325Z,9.85
2018-12-30T11:46:43.892Z,9.45
2018-12-30T11:49:14.396Z,14.07
2018-12-30T11:51:44.879Z,10.08
2018-12-30T11:54:16.536Z,11.68
2018-12-30T11:56:47.303Z,14.70
2018-12-30T11:59:17.863Z,15.33
2018-12-30T12:01:48.385Z,8.48
2018-12-30T12:04:18.923Z,16.12
2018-12-30T12:06:49.485Z,13.35
2018-12-30T12:09:20.002Z,15.88
2018-12-30T12:11:50.524Z,15.48
2018-12-30T12:14:21.009Z,17.42
2018-12-30T12:16:51.527Z,11.90
2018-12-30T12:19:22.089Z,17.90
2018-12-30T12:21:52.588Z,13.03
2018-12-30T12:24:24.444Z,10.80
2018-12-30T12:26:55.144Z,14.03
2018-12-30T12:29:25.738Z,13.28
2018-12-30T12:31:56.219Z,6.20
2018-12-30T12:34:26.754Z,9.75
2018-12-30T18:37:32.608Z,14.13
2018-12-30T18:40:03.103Z,28.32
2018-12-30T18:42:33.659Z,22.07
2018-12-30T18:45:04.278Z,12.03
2018-12-30T18:47:34.838Z,19.80
2018-12-30T18:50:05.633Z,17.45
2018-12-30T18:52:36.160Z,14.50
2018-12-30T18:55:07.096Z,13.48
2018-12-30T18:57:37.652Z,21.17
2018-12-30T19:00:10.611Z,15.40
2018-12-30T19:02:41.102Z,20.93
2018-12-30T19:05:11.734Z,9.38
2018-12-30T19:07:42.294Z,23.73
2018-12-30T19:10:12.824Z,22.85
2018-12-30T19:12:43.311Z,17.23
2018-12-30T19:15:13.882Z,13.45
2018-12-30T19:17:44.364Z,24.57
2018-12-30T19:20:14.835Z,18.85
2018-12-30T19:22:45.407Z,16.50
2018-12-30T19:25:15.892Z,16.67
2018-12-30T19:27:47.232Z,19.07
2018-12-30T19:30:17.719Z,10.73
2018-12-30T19:32:48.151Z,15.72
2018-12-30T19:35:18.927Z,17.30
2018-12-30T19:37:49.675Z,22.05
2018-12-30T19:40:20.177Z,11.65
2018-12-30T19:42:50.690Z,19.67
2018-12-30T19:45:21.201Z,36.75
2018-12-30T19:47:51.721Z,15.70
2018-12-30T19:50:22.216Z,27.70
2018-12-30T19:52:52.772Z,23.35
2018-12-30T19:55:23.314Z,19.80
2018-12-30T19:57:53.835Z,21.02
2018-12-30T20:00:24.430Z,23.33
2018-12-30T20:02:54.925Z,27.02
2018-12-30T20:05:25.399Z,31.30
2018-12-30T20:07:55.956Z,26.77
2018-12-30T20:10:26.543Z,35.98
2018-12-30T20:12:57.826Z,31.52
2018-12-30T20:15:30.462Z,28.12
2018-12-30T20:18:00.966Z,22.70
2018-12-30T20:20:31.451Z,18.65
2018-12-30T20:23:01.987Z,28.07
2018-12-30T20:25:32.522Z,33.10
2018-12-30T20:28:02.973Z,16.27
2018-12-30T20:30:33.525Z,17.00
2018-12-30T20:33:04.007Z,16.77
2018-12-30T20:35:34.551Z,20.40
2018-12-30T20:38:05.105Z,22.25
2018-12-30T20:40:35.622Z,37.40
2018-12-30T20:43:07.415Z,18.98
2018-12-30T20:45:37.944Z,19.10
2018-12-30T20:48:08.443Z,22.48
2018-12-30T20:50:38.865Z,23.25
2018-12-30T20:53:09.339Z,17.07
2018-12-30T20:55:39.796Z,21.27
2018-12-30T20:58:10.397Z,16.32
2018-12-30T21:00:40.910Z,21.40
2018-12-30T21:03:11.426Z,20.60
2018-12-30T21:05:41.907Z,19.80
2018-12-30T21:08:12.437Z,20.52
2018-12-30T21:10:42.972Z,20.80
2018-12-30T21:13:13.488Z,22.52
2018-12-30T21:15:44.009Z,28.83
2018-12-30T21:18:14.558Z,26.00
2018-12-30T21:20:44.963Z,16.15
2018-12-30T21:23:15.758Z,22.33
2018-12-30T21:25:46.286Z,23.85
2018-12-30T21:28:16.755Z,22.65
2018-12-30T21:30:47.294Z,23.67
2018-12-30T21:33:17.787Z,18.50
2018-12-30T21:35:48.308Z,17.00
2018-12-30T21:38:18.812Z,24.80
2018-12-30T21:40:49.318Z,19.52
2018-12-30T21:43:19.743Z,17.32
2018-12-30T21:45:50.280Z,30.07
2018-12-30T21:48:20.788Z,20.12
2018-12-30T21:50:53.826Z,14.93
2018-12-30T21:53:24.731Z,17.80
2018-12-30T21:55:55.280Z,23.75
2018-12-30T21:58:25.807Z,19.15
2018-12-30T22:00:56.358Z,24.45
2018-12-30T22:03:26.884Z,19.25
2018-12-30T22:05:57.437Z,20.55
2018-12-30T22:08:28.069Z,14.65
2018-12-30T22:10:58.557Z,20.40
2018-12-30T22:13:29.057Z,29.65
2018-12-30T22:15:59.615Z,18.77
2018-12-30T22:18:30.179Z,30.97
2018-12-30T22:21:00.680Z,18.07
2018-12-30T22:23:31.228Z,15.40
2018-12-30T22:26:01.751Z,19.92
2018-12-30T22:28:32.224Z,25.53
2018-12-30T22:31:02.758Z,23.05
2018-12-30T22:33:33.235Z,26.03
2018-12-30T22:36:03.763Z,15.50
2018-12-30T22:38:34.278Z,45.28
2018-12-30T22:41:04.828Z,23.38
2018-12-30T22:43:35.314Z,15.00
2018-12-30T22:46:05.838Z,27.30
2018-12-30T22:48:36.323Z,24.02
2018-12-30T22:51:06.820Z,24.75
2018-12-30T22:53:37.389Z,23.45
2018-12-30T22:56:07.877Z,25.15
2018-12-30T22:58:38.374Z,19.60
2018-12-30T23:01:12.203Z,29.50
2018-12-30T23:03:42.724Z,22.80
2018-12-30T23:06:15.731Z,24.85
2018-12-30T23:08:45.487Z,25.05
2018-12-30T23:11:15.964Z,22.02
2018-12-30T23:13:46.433Z,18.37
2018-12-30T23:16:16.970Z,28.83
2018-12-30T23:18:47.453Z,22.82
2018-12-30T23:21:17.996Z,13.80
2018-12-30T23:23:48.519Z,16.50
2018-12-30T23:26:19.035Z,21.62
2018-12-30T23:28:49.536Z,27.87
2018-12-30T23:31:20.068Z,28.60
2018-12-30T23:33:50.618Z,19.67
2018-12-30T23:36:21.109Z,22.48
2018-12-30T23:38:51.695Z,21.40
2018-12-30T23:41:22.189Z,18.30
2018-12-30T23:43:52.727Z,21.20
2018-12-30T23:46:23.258Z,13.87
2018-12-30T23:48:53.797Z,19.12
2018-12-30T23:51:24.270Z,23.27
2018-12-30T23:53:54.804Z,25.20
2018-12-30T23:56:25.306Z,15.35
2018-12-30T23:58:55.767Z,22.77
